sensor_id;sensor_type;location;lat;lon;timestamp;P1;durP1;ratioP1;P2;durP2;ratioP2
2390;SDS011;22957;50.824;4.360;2024-03-02T00:02:24;0.90;;;0.50;;
2390;SDS011;22957;50.824;4.360;2024-03-02T00:04:50;0.90;;;0.50;;
2390;SDS011;22957;50.824;4.360;2024-03-02T00:07:16;2.80;;;0.50;;
2390;SDS011;22957;50.824;4.360;2024-03-02T00:09:42;3.43;;;0.60;;
2390;SDS011;22957;50.824;4.360;2024-03-02T00:12:08;0.90;;;0.50;;
2390;SDS011;22957;50.824;4.360;2024-03-02T00:14:36;1.00;;;0.50;;
2390;SDS011;22957;50.824;4.360;2024-03-02T00:17:02;1.57;;;0.50;;
2390;SDS011;22957;50.824;4.360;2024-03-02T00:19:27;0.93;;;0.60;;
2390;SDS011;22957;50.824;4.360;2024-03-02T00:21:53;0.90;;;0.50;;
2390;SDS011;22957;50.824;4.360;2024-03-02T00:24:52;0.83;;;0.47;;
2390;SDS011;22957;50.824;4.360;2024-03-02T00:27:12;0.90;;;0.60;;
2390;SDS011;22957;50.824;4.360;2024-03-02T00:29:41;1.10;;;0.70;;
2390;SDS011;22957;50.824;4.360;2024-03-02T00:32:13;0.90;;;0.47;;
2390;SDS011;22957;50.824;4.360;2024-03-02T00:34:41;1.20;;;0.60;;
2390;SDS011;22957;50.824;4.360;2024-03-02T00:37:07;1.93;;;0.60;;
2390;SDS011;22957;50.824;4.360;2024-03-02T00:39:33;0.80;;;0.47;;
2390;SDS011;22957;50.824;4.360;2024-03-02T00:41:59;1.30;;;0.70;;
2390;SDS011;22957;50.824;4.360;2024-03-02T00:44:25;1.00;;;0.50;;
2390;SDS011;22957;50.824;4.360;2024-03-02T00:46:59;3.73;;;0.50;;
2390;SDS011;22957;50.824;4.360;2024-03-02T00:49:25;1.93;;;0.50;;
2390;SDS011;22957;50.824;4.360;2024-03-02T00:51:53;1.20;;;0.50;;
2390;SDS011;22957;50.824;4.360;2024-03-02T00:54:20;0.80;;;0.40;;
2390;SDS011;22957;50.824;4.360;2024-03-02T00:56:48;0.97;;;0.50;;
2390;SDS011;22957;50.824;4.360;2024-03-02T00:59:14;0.90;;;0.50;;
2390;SDS011;22957;50.824;4.360;2024-03-02T01:01:40;1.20;;;0.50;;
2390;SDS011;22957;50.824;4.360;2024-03-02T01:04:07;1.10;;;0.50;;
2390;SDS011;22957;50.824;4.360;2024-03-02T01:06:32;1.13;;;0.43;;
2390;SDS011;22957;50.824;4.360;2024-03-02T01:08:58;1.00;;;0.47;;
2390;SDS011;22957;50.824;4.360;2024-03-02T01:11:24;0.90;;;0.40;;
2390;SDS011;22957;50.824;4.360;2024-03-02T01:13:50;2.17;;;0.50;;
2390;SDS011;22957;50.824;4.360;2024-03-02T01:16:16;1.23;;;0.50;;
2390;SDS011;22957;50.824;4.360;2024-03-02T01:18:42;1.20;;;0.50;;
2390;SDS011;22957;50.824;4.360;2024-03-02T01:21:08;0.80;;;0.40;;
2390;SDS011;22957;50.824;4.360;2024-03-02T01:23:33;2.43;;;0.47;;
2390;SDS011;22957;50.824;4.360;2024-03-02T01:25:59;1.30;;;0.50;;
2390;SDS011;22957;50.824;4.360;2024-03-02T01:28:25;0.93;;;0.47;;
2390;SDS011;22957;50.824;4.360;2024-03-02T01:30:50;0.80;;;0.40;;
2390;SDS011;22957;50.824;4.360;2024-03-02T01:33:16;0.90;;;0.50;;
2390;SDS011;22957;50.824;4.360;2024-03-02T01:35:42;1.50;;;0.60;;
2390;SDS011;22957;50.824;4.360;2024-03-02T01:38:08;2.00;;;0.50;;
2390;SDS011;22957;50.824;4.360;2024-03-02T01:40:34;1.87;;;0.50;;
2390;SDS011;22957;50.824;4.360;2024-03-02T01:43:01;1.50;;;0.50;;
2390;SDS011;22957;50.824;4.360;2024-03-02T01:45:27;1.17;;;0.60;;
2390;SDS011;22957;50.824;4.360;2024-03-02T01:47:53;1.97;;;0.60;;
2390;SDS011;22957;50.824;4.360;2024-03-02T01:50:29;1.10;;;0.50;;
2390;SDS011;22957;50.824;4.360;2024-03-02T01:52:56;1.80;;;0.50;;
2390;SDS011;22957;50.824;4.360;2024-03-02T01:55:21;1.10;;;0.50;;
2390;SDS011;22957;50.824;4.360;2024-03-02T01:57:51;3.33;;;0.60;;
2390;SDS011;22957;50.824;4.360;2024-03-02T02:00:17;1.33;;;0.50;;
2390;SDS011;22957;50.824;4.360;2024-03-02T02:02:44;1.00;;;0.67;;
2390;SDS011;22957;50.824;4.360;2024-03-02T02:05:10;1.80;;;0.50;;
2390;SDS011;22957;50.824;4.360;2024-03-02T02:07:36;1.00;;;0.40;;
2390;SDS011;22957;50.824;4.360;2024-03-02T02:10:01;2.53;;;0.60;;
2390;SDS011;22957;50.824;4.360;2024-03-02T02:12:27;0.87;;;0.40;;
2390;SDS011;22957;50.824;4.360;2024-03-02T02:14:53;2.57;;;0.53;;
2390;SDS011;22957;50.824;4.360;2024-03-02T02:17:19;1.40;;;0.60;;
2390;SDS011;22957;50.824;4.360;2024-03-02T02:19:44;1.20;;;0.50;;
2390;SDS011;22957;50.824;4.360;2024-03-02T02:22:10;1.90;;;0.60;;
2390;SDS011;22957;50.824;4.360;2024-03-02T02:24:39;1.10;;;0.60;;
2390;SDS011;22957;50.824;4.360;2024-03-02T02:27:08;0.90;;;0.50;;
2390;SDS011;22957;50.824;4.360;2024-03-02T02:29:34;2.30;;;0.70;;
2390;SDS011;22957;50.824;4.360;2024-03-02T02:32:00;2.70;;;0.50;;
2390;SDS011;22957;50.824;4.360;2024-03-02T02:34:26;1.07;;;0.50;;
2390;SDS011;22957;50.824;4.360;2024-03-02T02:36:52;1.27;;;0.60;;
2390;SDS011;22957;50.824;4.360;2024-03-02T02:39:18;1.73;;;0.40;;
2390;SDS011;22957;50.824;4.360;2024-03-02T02:41:46;1.00;;;0.53;;
2390;SDS011;22957;50.824;4.360;2024-03-02T02:44:11;3.43;;;0.90;;
2390;SDS011;22957;50.824;4.360;2024-03-02T02:46:38;1.13;;;0.50;;
2390;SDS011;22957;50.824;4.360;2024-03-02T02:49:04;2.00;;;0.60;;
2390;SDS011;22957;50.824;4.360;2024-03-02T02:51:29;1.00;;;0.50;;
2390;SDS011;22957;50.824;4.360;2024-03-02T02:53:55;3.27;;;0.60;;
2390;SDS011;22957;50.824;4.360;2024-03-02T02:56:20;2.90;;;0.70;;
2390;SDS011;22957;50.824;4.360;2024-03-02T02:58:46;1.67;;;0.70;;
2390;SDS011;22957;50.824;4.360;2024-03-02T03:01:11;3.67;;;0.67;;
2390;SDS011;22957;50.824;4.360;2024-03-02T03:03:37;1.60;;;0.60;;
2390;SDS011;22957;50.824;4.360;2024-03-02T03:06:03;2.03;;;0.50;;
2390;SDS011;22957;50.824;4.360;2024-03-02T03:08:28;5.80;;;0.60;;
2390;SDS011;22957;50.824;4.360;2024-03-02T03:10:54;2.20;;;0.60;;
2390;SDS011;22957;50.824;4.360;2024-03-02T03:13:19;2.30;;;0.50;;
2390;SDS011;22957;50.824;4.360;2024-03-02T03:15:45;1.00;;;0.50;;
2390;SDS011;22957;50.824;4.360;2024-03-02T03:18:10;3.20;;;0.60;;
2390;SDS011;22957;50.824;4.360;2024-03-02T03:20:36;0.83;;;0.50;;
2390;SDS011;22957;50.824;4.360;2024-03-02T03:23:02;1.83;;;0.50;;
2390;SDS011;22957;50.824;4.360;2024-03-02T03:25:29;2.60;;;0.70;;
2390;SDS011;22957;50.824;4.360;2024-03-02T03:27:54;1.00;;;0.50;;
2390;SDS011;22957;50.824;4.360;2024-03-02T03:30:20;4.63;;;0.50;;
2390;SDS011;22957;50.824;4.360;2024-03-02T03:32:46;1.13;;;0.60;;
2390;SDS011;22957;50.824;4.360;2024-03-02T03:35:13;1.20;;;0.50;;
2390;SDS011;22957;50.824;4.360;2024-03-02T03:37:40;1.83;;;0.80;;
2390;SDS011;22957;50.824;4.360;2024-03-02T03:40:06;2.03;;;0.60;;
2390;SDS011;22957;50.824;4.360;2024-03-02T03:42:35;1.10;;;0.70;;
2390;SDS011;22957;50.824;4.360;2024-03-02T03:45:00;2.43;;;0.60;;
2390;SDS011;22957;50.824;4.360;2024-03-02T03:47:26;4.60;;;0.60;;
2390;SDS011;22957;50.824;4.360;2024-03-02T03:49:52;1.63;;;0.57;;
2390;SDS011;22957;50.824;4.360;2024-03-02T03:52:17;2.90;;;0.73;;
2390;SDS011;22957;50.824;4.360;2024-03-02T03:54:43;3.10;;;0.73;;
2390;SDS011;22957;50.824;4.360;2024-03-02T03:57:09;1.90;;;0.60;;
2390;SDS011;22957;50.824;4.360;2024-03-02T03:59:35;1.77;;;0.60;;
2390;SDS011;22957;50.824;4.360;2024-03-02T04:02:02;2.30;;;0.60;;
2390;SDS011;22957;50.824;4.360;2024-03-02T04:04:28;2.70;;;0.60;;
2390;SDS011;22957;50.824;4.360;2024-03-02T04:06:53;5.80;;;0.60;;
2390;SDS011;22957;50.824;4.360;2024-03-02T04:09:19;6.30;;;0.83;;
2390;SDS011;22957;50.824;4.360;2024-03-02T04:11:44;1.07;;;0.47;;
2390;SDS011;22957;50.824;4.360;2024-03-02T04:14:10;3.10;;;0.63;;
2390;SDS011;22957;50.824;4.360;2024-03-02T04:16:37;2.43;;;0.60;;
2390;SDS011;22957;50.824;4.360;2024-03-02T04:19:03;2.70;;;0.60;;
2390;SDS011;22957;50.824;4.360;2024-03-02T04:21:29;3.23;;;0.60;;
2390;SDS011;22957;50.824;4.360;2024-03-02T04:23:54;5.73;;;0.60;;
2390;SDS011;22957;50.824;4.360;2024-03-02T04:26:23;2.10;;;0.60;;
2390;SDS011;22957;50.824;4.360;2024-03-02T04:28:50;1.30;;;0.60;;
2390;SDS011;22957;50.824;4.360;2024-03-02T04:31:19;1.63;;;0.60;;
2390;SDS011;22957;50.824;4.360;2024-03-02T04:33:45;2.30;;;0.60;;
2390;SDS011;22957;50.824;4.360;2024-03-02T04:36:10;1.17;;;0.60;;
2390;SDS011;22957;50.824;4.360;2024-03-02T04:38:36;1.90;;;0.50;;
2390;SDS011;22957;50.824;4.360;2024-03-02T04:41:03;2.83;;;0.97;;
2390;SDS011;22957;50.824;4.360;2024-03-02T04:43:31;2.17;;;0.60;;
2390;SDS011;22957;50.824;4.360;2024-03-02T04:45:56;2.93;;;0.63;;
2390;SDS011;22957;50.824;4.360;2024-03-02T04:48:23;3.10;;;0.57;;
2390;SDS011;22957;50.824;4.360;2024-03-02T04:50:48;1.43;;;0.50;;
2390;SDS011;22957;50.824;4.360;2024-03-02T04:53:14;1.00;;;0.50;;
2390;SDS011;22957;50.824;4.360;2024-03-02T04:55:40;1.10;;;0.50;;
2390;SDS011;22957;50.824;4.360;2024-03-02T04:58:05;1.53;;;0.57;;
2390;SDS011;22957;50.824;4.360;2024-03-02T05:00:31;2.53;;;0.63;;
2390;SDS011;22957;50.824;4.360;2024-03-02T05:02:57;2.97;;;0.70;;
2390;SDS011;22957;50.824;4.360;2024-03-02T05:05:23;5.73;;;0.67;;
2390;SDS011;22957;50.824;4.360;2024-03-02T05:07:48;4.00;;;0.70;;
2390;SDS011;22957;50.824;4.360;2024-03-02T05:10:14;4.60;;;0.80;;
2390;SDS011;22957;50.824;4.360;2024-03-02T05:12:40;1.10;;;0.60;;
2390;SDS011;22957;50.824;4.360;2024-03-02T05:15:09;1.20;;;0.63;;
2390;SDS011;22957;50.824;4.360;2024-03-02T05:17:35;1.83;;;0.70;;
2390;SDS011;22957;50.824;4.360;2024-03-02T05:20:02;1.77;;;0.70;;
2390;SDS011;22957;50.824;4.360;2024-03-02T05:22:32;3.33;;;0.70;;
2390;SDS011;22957;50.824;4.360;2024-03-02T05:24:59;2.27;;;0.80;;
2390;SDS011;22957;50.824;4.360;2024-03-02T05:27:25;1.60;;;0.60;;
2390;SDS011;22957;50.824;4.360;2024-03-02T05:29:54;3.80;;;0.57;;
2390;SDS011;22957;50.824;4.360;2024-03-02T05:32:20;2.80;;;0.80;;
2390;SDS011;22957;50.824;4.360;2024-03-02T05:34:45;2.00;;;0.60;;
2390;SDS011;22957;50.824;4.360;2024-03-02T05:37:11;6.77;;;0.90;;
2390;SDS011;22957;50.824;4.360;2024-03-02T05:39:36;2.57;;;0.70;;
2390;SDS011;22957;50.824;4.360;2024-03-02T05:42:02;8.37;;;0.80;;
2390;SDS011;22957;50.824;4.360;2024-03-02T05:44:28;2.37;;;0.60;;
2390;SDS011;22957;50.824;4.360;2024-03-02T05:46:53;2.63;;;0.70;;
2390;SDS011;22957;50.824;4.360;2024-03-02T05:49:19;3.47;;;0.70;;
2390;SDS011;22957;50.824;4.360;2024-03-02T05:51:45;2.60;;;0.73;;
2390;SDS011;22957;50.824;4.360;2024-03-02T05:54:10;1.80;;;0.70;;
2390;SDS011;22957;50.824;4.360;2024-03-02T05:56:36;3.43;;;0.70;;
2390;SDS011;22957;50.824;4.360;2024-03-02T05:59:01;2.73;;;0.70;;
2390;SDS011;22957;50.824;4.360;2024-03-02T06:01:44;5.00;;;0.70;;
2390;SDS011;22957;50.824;4.360;2024-03-02T06:04:15;1.60;;;0.80;;
2390;SDS011;22957;50.824;4.360;2024-03-02T06:06:41;1.10;;;0.80;;
2390;SDS011;22957;50.824;4.360;2024-03-02T06:09:06;5.57;;;0.80;;
2390;SDS011;22957;50.824;4.360;2024-03-02T06:11:33;2.80;;;0.80;;
2390;SDS011;22957;50.824;4.360;2024-03-02T06:13:59;4.80;;;0.60;;
2390;SDS011;22957;50.824;4.360;2024-03-02T06:16:25;2.20;;;0.67;;
2390;SDS011;22957;50.824;4.360;2024-03-02T06:18:50;3.70;;;0.70;;
2390;SDS011;22957;50.824;4.360;2024-03-02T06:21:16;3.20;;;0.70;;
2390;SDS011;22957;50.824;4.360;2024-03-02T06:23:43;2.50;;;0.53;;
2390;SDS011;22957;50.824;4.360;2024-03-02T06:26:09;4.77;;;0.80;;
2390;SDS011;22957;50.824;4.360;2024-03-02T06:28:34;3.20;;;0.73;;
2390;SDS011;22957;50.824;4.360;2024-03-02T06:31:00;7.60;;;1.30;;
2390;SDS011;22957;50.824;4.360;2024-03-02T06:33:27;4.20;;;0.80;;
2390;SDS011;22957;50.824;4.360;2024-03-02T06:35:53;2.77;;;1.00;;
2390;SDS011;22957;50.824;4.360;2024-03-02T06:38:19;4.37;;;0.80;;
2390;SDS011;22957;50.824;4.360;2024-03-02T06:40:44;3.20;;;1.13;;
2390;SDS011;22957;50.824;4.360;2024-03-02T06:43:10;4.83;;;0.80;;
2390;SDS011;22957;50.824;4.360;2024-03-02T06:45:36;2.50;;;0.70;;
2390;SDS011;22957;50.824;4.360;2024-03-02T06:48:01;3.73;;;0.87;;
2390;SDS011;22957;50.824;4.360;2024-03-02T06:50:27;3.03;;;0.70;;
2390;SDS011;22957;50.824;4.360;2024-03-02T06:52:53;4.30;;;0.83;;
2390;SDS011;22957;50.824;4.360;2024-03-02T06:55:20;5.53;;;1.33;;
2390;SDS011;22957;50.824;4.360;2024-03-02T06:57:46;3.60;;;0.90;;
2390;SDS011;22957;50.824;4.360;2024-03-02T07:00:12;2.23;;;0.70;;
2390;SDS011;22957;50.824;4.360;2024-03-02T07:02:38;2.33;;;0.80;;
2390;SDS011;22957;50.824;4.360;2024-03-02T07:05:06;7.03;;;0.83;;
2390;SDS011;22957;50.824;4.360;2024-03-02T07:07:33;9.27;;;1.07;;
2390;SDS011;22957;50.824;4.360;2024-03-02T07:09:59;2.00;;;0.70;;
2390;SDS011;22957;50.824;4.360;2024-03-02T07:12:25;2.87;;;0.87;;
2390;SDS011;22957;50.824;4.360;2024-03-02T07:14:51;2.50;;;0.70;;
2390;SDS011;22957;50.824;4.360;2024-03-02T07:17:28;3.23;;;0.80;;
2390;SDS011;22957;50.824;4.360;2024-03-02T07:19:54;1.80;;;0.80;;
2390;SDS011;22957;50.824;4.360;2024-03-02T07:22:20;2.17;;;0.77;;
2390;SDS011;22957;50.824;4.360;2024-03-02T07:24:46;4.03;;;0.67;;
2390;SDS011;22957;50.824;4.360;2024-03-02T07:27:11;9.07;;;1.77;;
2390;SDS011;22957;50.824;4.360;2024-03-02T07:29:38;4.83;;;0.93;;
2390;SDS011;22957;50.824;4.360;2024-03-02T07:32:05;7.03;;;0.90;;
2390;SDS011;22957;50.824;4.360;2024-03-02T07:34:31;3.60;;;1.30;;
2390;SDS011;22957;50.824;4.360;2024-03-02T07:36:57;3.73;;;1.20;;
2390;SDS011;22957;50.824;4.360;2024-03-02T07:39:22;5.33;;;1.00;;
2390;SDS011;22957;50.824;4.360;2024-03-02T07:41:48;3.30;;;0.70;;
2390;SDS011;22957;50.824;4.360;2024-03-02T07:44:14;7.63;;;0.90;;
2390;SDS011;22957;50.824;4.360;2024-03-02T07:46:43;3.97;;;1.00;;
2390;SDS011;22957;50.824;4.360;2024-03-02T07:49:09;4.70;;;1.03;;
2390;SDS011;22957;50.824;4.360;2024-03-02T07:51:34;3.83;;;1.07;;
2390;SDS011;22957;50.824;4.360;2024-03-02T07:54:01;4.43;;;0.90;;
2390;SDS011;22957;50.824;4.360;2024-03-02T07:56:26;4.93;;;0.80;;
2390;SDS011;22957;50.824;4.360;2024-03-02T07:58:52;7.87;;;1.00;;
2390;SDS011;22957;50.824;4.360;2024-03-02T08:01:18;6.93;;;0.80;;
2390;SDS011;22957;50.824;4.360;2024-03-02T08:03:43;1.77;;;0.70;;
2390;SDS011;22957;50.824;4.360;2024-03-02T08:06:18;3.83;;;0.80;;
2390;SDS011;22957;50.824;4.360;2024-03-02T08:08:47;3.03;;;0.80;;
2390;SDS011;22957;50.824;4.360;2024-03-02T08:11:12;3.57;;;0.70;;
2390;SDS011;22957;50.824;4.360;2024-03-02T08:13:38;7.20;;;0.97;;
2390;SDS011;22957;50.824;4.360;2024-03-02T08:16:04;7.30;;;1.20;;
2390;SDS011;22957;50.824;4.360;2024-03-02T08:18:32;4.10;;;0.90;;
2390;SDS011;22957;50.824;4.360;2024-03-02T08:20:58;6.80;;;0.90;;
2390;SDS011;22957;50.824;4.360;2024-03-02T08:23:24;5.20;;;1.27;;
2390;SDS011;22957;50.824;4.360;2024-03-02T08:25:49;8.00;;;2.07;;
2390;SDS011;22957;50.824;4.360;2024-03-02T08:28:15;6.60;;;1.10;;
2390;SDS011;22957;50.824;4.360;2024-03-02T08:30:40;3.97;;;0.90;;
2390;SDS011;22957;50.824;4.360;2024-03-02T08:33:06;5.90;;;1.10;;
2390;SDS011;22957;50.824;4.360;2024-03-02T08:35:31;6.10;;;1.10;;
2390;SDS011;22957;50.824;4.360;2024-03-02T08:38:01;1.70;;;0.90;;
2390;SDS011;22957;50.824;4.360;2024-03-02T08:40:27;9.50;;;1.00;;
2390;SDS011;22957;50.824;4.360;2024-03-02T08:42:53;3.27;;;1.30;;
2390;SDS011;22957;50.824;4.360;2024-03-02T08:45:19;2.13;;;0.80;;
2390;SDS011;22957;50.824;4.360;2024-03-02T08:47:45;2.80;;;0.90;;
2390;SDS011;22957;50.824;4.360;2024-03-02T08:50:11;7.53;;;0.90;;
2390;SDS011;22957;50.824;4.360;2024-03-02T08:52:37;4.77;;;1.00;;
2390;SDS011;22957;50.824;4.360;2024-03-02T08:55:02;3.27;;;1.00;;
2390;SDS011;22957;50.824;4.360;2024-03-02T08:57:28;7.50;;;1.23;;
2390;SDS011;22957;50.824;4.360;2024-03-02T08:59:54;4.43;;;1.37;;
2390;SDS011;22957;50.824;4.360;2024-03-02T09:02:19;4.17;;;1.03;;
2390;SDS011;22957;50.824;4.360;2024-03-02T09:04:45;8.00;;;0.90;;
2390;SDS011;22957;50.824;4.360;2024-03-02T09:07:10;6.17;;;1.10;;
2390;SDS011;22957;50.824;4.360;2024-03-02T09:09:36;6.30;;;1.23;;
2390;SDS011;22957;50.824;4.360;2024-03-02T09:12:04;7.83;;;0.90;;
2390;SDS011;22957;50.824;4.360;2024-03-02T09:14:30;4.90;;;1.00;;
2390;SDS011;22957;50.824;4.360;2024-03-02T09:16:56;4.10;;;1.30;;
2390;SDS011;22957;50.824;4.360;2024-03-02T09:19:21;6.13;;;1.03;;
2390;SDS011;22957;50.824;4.360;2024-03-02T09:21:47;6.20;;;0.80;;
2390;SDS011;22957;50.824;4.360;2024-03-02T09:24:12;3.77;;;1.00;;
2390;SDS011;22957;50.824;4.360;2024-03-02T09:26:38;5.33;;;1.00;;
2390;SDS011;22957;50.824;4.360;2024-03-02T09:29:05;7.03;;;1.10;;
2390;SDS011;22957;50.824;4.360;2024-03-02T09:31:30;3.30;;;0.90;;
2390;SDS011;22957;50.824;4.360;2024-03-02T09:33:56;5.43;;;0.93;;
2390;SDS011;22957;50.824;4.360;2024-03-02T09:36:22;6.27;;;1.10;;
2390;SDS011;22957;50.824;4.360;2024-03-02T09:38:48;4.10;;;1.20;;
2390;SDS011;22957;50.824;4.360;2024-03-02T09:41:14;4.17;;;0.83;;
2390;SDS011;22957;50.824;4.360;2024-03-02T09:43:40;5.03;;;1.17;;
2390;SDS011;22957;50.824;4.360;2024-03-02T09:46:09;5.77;;;0.87;;
2390;SDS011;22957;50.824;4.360;2024-03-02T09:48:35;4.70;;;1.30;;
2390;SDS011;22957;50.824;4.360;2024-03-02T09:51:01;5.10;;;1.03;;
2390;SDS011;22957;50.824;4.360;2024-03-02T09:53:30;3.53;;;0.80;;
2390;SDS011;22957;50.824;4.360;2024-03-02T09:55:57;4.07;;;0.90;;
2390;SDS011;22957;50.824;4.360;2024-03-02T09:58:23;8.53;;;1.20;;
2390;SDS011;22957;50.824;4.360;2024-03-02T10:00:49;5.90;;;1.30;;
2390;SDS011;22957;50.824;4.360;2024-03-02T10:03:14;4.77;;;0.80;;
2390;SDS011;22957;50.824;4.360;2024-03-02T10:05:41;8.00;;;1.10;;
2390;SDS011;22957;50.824;4.360;2024-03-02T10:08:07;5.40;;;1.10;;
2390;SDS011;22957;50.824;4.360;2024-03-02T10:10:40;4.43;;;1.10;;
2390;SDS011;22957;50.824;4.360;2024-03-02T10:13:08;4.73;;;0.90;;
2390;SDS011;22957;50.824;4.360;2024-03-02T10:15:34;4.97;;;1.53;;
2390;SDS011;22957;50.824;4.360;2024-03-02T10:18:02;8.03;;;1.03;;
2390;SDS011;22957;50.824;4.360;2024-03-02T10:20:35;1.83;;;0.87;;
2390;SDS011;22957;50.824;4.360;2024-03-02T10:23:12;2.83;;;0.90;;
2390;SDS011;22957;50.824;4.360;2024-03-02T10:25:38;7.03;;;1.13;;
2390;SDS011;22957;50.824;4.360;2024-03-02T10:28:05;4.10;;;0.90;;
2390;SDS011;22957;50.824;4.360;2024-03-02T10:30:31;2.60;;;0.90;;
2390;SDS011;22957;50.824;4.360;2024-03-02T10:32:57;6.10;;;1.30;;
2390;SDS011;22957;50.824;4.360;2024-03-02T10:35:23;6.33;;;1.30;;
2390;SDS011;22957;50.824;4.360;2024-03-02T10:37:49;8.90;;;1.00;;
2390;SDS011;22957;50.824;4.360;2024-03-02T10:40:15;8.80;;;1.27;;
2390;SDS011;22957;50.824;4.360;2024-03-02T10:42:41;8.50;;;1.10;;
2390;SDS011;22957;50.824;4.360;2024-03-02T10:45:08;4.33;;;0.97;;
2390;SDS011;22957;50.824;4.360;2024-03-02T10:47:38;4.40;;;1.00;;
2390;SDS011;22957;50.824;4.360;2024-03-02T10:50:06;3.27;;;0.90;;
2390;SDS011;22957;50.824;4.360;2024-03-02T10:52:34;5.00;;;0.90;;
2390;SDS011;22957;50.824;4.360;2024-03-02T10:55:00;9.53;;;0.80;;
2390;SDS011;22957;50.824;4.360;2024-03-02T10:57:26;6.33;;;0.90;;
2390;SDS011;22957;50.824;4.360;2024-03-02T10:59:56;4.17;;;1.00;;
2390;SDS011;22957;50.824;4.360;2024-03-02T11:02:26;7.93;;;1.17;;
2390;SDS011;22957;50.824;4.360;2024-03-02T11:04:55;3.50;;;1.00;;
2390;SDS011;22957;50.824;4.360;2024-03-02T11:07:21;5.37;;;1.00;;
2390;SDS011;22957;50.824;4.360;2024-03-02T11:10:08;2.60;;;0.90;;
2390;SDS011;22957;50.824;4.360;2024-03-02T11:12:44;5.90;;;1.13;;
2390;SDS011;22957;50.824;4.360;2024-03-02T11:15:21;4.90;;;1.00;;
2390;SDS011;22957;50.824;4.360;2024-03-02T11:17:50;10.00;;;1.70;;
2390;SDS011;22957;50.824;4.360;2024-03-02T11:20:17;4.90;;;1.07;;
2390;SDS011;22957;50.824;4.360;2024-03-02T11:22:44;8.70;;;1.50;;
2390;SDS011;22957;50.824;4.360;2024-03-02T11:25:22;6.17;;;1.60;;
2390;SDS011;22957;50.824;4.360;2024-03-02T11:33:01;8.80;;;1.73;;
2390;SDS011;22957;50.824;4.360;2024-03-02T11:35:34;4.80;;;1.00;;
2390;SDS011;22957;50.824;4.360;2024-03-02T11:38:07;8.17;;;1.00;;
2390;SDS011;22957;50.824;4.360;2024-03-02T11:40:34;6.70;;;1.40;;
2390;SDS011;22957;50.824;4.360;2024-03-02T11:43:00;6.07;;;1.30;;
2390;SDS011;22957;50.824;4.360;2024-03-02T11:45:26;5.50;;;1.00;;
2390;SDS011;22957;50.824;4.360;2024-03-02T11:47:55;8.37;;;1.33;;
2390;SDS011;22957;50.824;4.360;2024-03-02T11:50:34;4.97;;;1.00;;
2390;SDS011;22957;50.824;4.360;2024-03-02T11:53:14;5.13;;;1.30;;
2390;SDS011;22957;50.824;4.360;2024-03-02T11:55:40;5.53;;;1.20;;
2390;SDS011;22957;50.824;4.360;2024-03-02T11:58:07;5.83;;;1.00;;
2390;SDS011;22957;50.824;4.360;2024-03-02T12:00:33;4.67;;;1.00;;
2390;SDS011;22957;50.824;4.360;2024-03-02T12:03:03;3.67;;;1.00;;
2390;SDS011;22957;50.824;4.360;2024-03-02T12:05:33;6.10;;;1.03;;
2390;SDS011;22957;50.824;4.360;2024-03-02T12:08:01;4.57;;;1.20;;
2390;SDS011;22957;50.824;4.360;2024-03-02T12:10:29;2.90;;;0.83;;
2390;SDS011;22957;50.824;4.360;2024-03-02T12:12:55;4.20;;;1.00;;
2390;SDS011;22957;50.824;4.360;2024-03-02T12:15:29;4.50;;;1.23;;
2390;SDS011;22957;50.824;4.360;2024-03-02T12:17:56;3.20;;;1.00;;
2390;SDS011;22957;50.824;4.360;2024-03-02T12:20:23;3.10;;;0.80;;
2390;SDS011;22957;50.824;4.360;2024-03-02T12:22:50;2.73;;;0.90;;
2390;SDS011;22957;50.824;4.360;2024-03-02T12:25:17;3.83;;;0.90;;
2390;SDS011;22957;50.824;4.360;2024-03-02T12:27:44;5.27;;;0.90;;
2390;SDS011;22957;50.824;4.360;2024-03-02T12:30:11;6.43;;;1.33;;
2390;SDS011;22957;50.824;4.360;2024-03-02T12:32:38;4.13;;;1.10;;
2390;SDS011;22957;50.824;4.360;2024-03-02T12:35:05;4.97;;;1.43;;
2390;SDS011;22957;50.824;4.360;2024-03-02T12:37:31;4.73;;;1.23;;
2390;SDS011;22957;50.824;4.360;2024-03-02T12:39:56;4.60;;;1.47;;
2390;SDS011;22957;50.824;4.360;2024-03-02T12:42:23;2.80;;;1.00;;
2390;SDS011;22957;50.824;4.360;2024-03-02T12:44:51;4.03;;;0.80;;
2390;SDS011;22957;50.824;4.360;2024-03-02T12:47:19;4.63;;;0.97;;
2390;SDS011;22957;50.824;4.360;2024-03-02T12:49:45;2.70;;;0.80;;
2390;SDS011;22957;50.824;4.360;2024-03-02T12:52:12;5.83;;;0.70;;
2390;SDS011;22957;50.824;4.360;2024-03-02T12:54:38;2.60;;;0.70;;
2390;SDS011;22957;50.824;4.360;2024-03-02T12:57:03;2.83;;;0.70;;
2390;SDS011;22957;50.824;4.360;2024-03-02T12:59:29;4.80;;;1.00;;
2390;SDS011;22957;50.824;4.360;2024-03-02T13:01:56;4.07;;;0.90;;
2390;SDS011;22957;50.824;4.360;2024-03-02T13:04:26;6.13;;;0.70;;
2390;SDS011;22957;50.824;4.360;2024-03-02T13:06:54;3.07;;;0.60;;
2390;SDS011;22957;50.824;4.360;2024-03-02T13:09:22;2.90;;;0.87;;
2390;SDS011;22957;50.824;4.360;2024-03-02T13:11:48;5.53;;;0.90;;
2390;SDS011;22957;50.824;4.360;2024-03-02T13:14:14;2.00;;;0.70;;
2390;SDS011;22957;50.824;4.360;2024-03-02T13:16:40;3.57;;;0.80;;
2390;SDS011;22957;50.824;4.360;2024-03-02T13:19:10;2.37;;;0.80;;
2390;SDS011;22957;50.824;4.360;2024-03-02T13:21:36;3.77;;;0.63;;
2390;SDS011;22957;50.824;4.360;2024-03-02T13:24:02;4.00;;;1.00;;
2390;SDS011;22957;50.824;4.360;2024-03-02T13:26:29;1.90;;;0.80;;
2390;SDS011;22957;50.824;4.360;2024-03-02T13:28:54;3.90;;;0.77;;
2390;SDS011;22957;50.824;4.360;2024-03-02T13:31:20;6.77;;;1.73;;
2390;SDS011;22957;50.824;4.360;2024-03-02T13:33:46;2.90;;;0.90;;
2390;SDS011;22957;50.824;4.360;2024-03-02T13:36:11;2.43;;;0.97;;
2390;SDS011;22957;50.824;4.360;2024-03-02T13:38:37;1.50;;;0.83;;
2390;SDS011;22957;50.824;4.360;2024-03-02T13:41:02;4.40;;;0.70;;
2390;SDS011;22957;50.824;4.360;2024-03-02T13:43:28;2.30;;;0.90;;
2390;SDS011;22957;50.824;4.360;2024-03-02T13:45:57;3.87;;;0.90;;
2390;SDS011;22957;50.824;4.360;2024-03-02T13:48:27;1.70;;;0.70;;
2390;SDS011;22957;50.824;4.360;2024-03-02T13:50:53;3.37;;;1.00;;
2390;SDS011;22957;50.824;4.360;2024-03-02T13:53:18;2.20;;;0.80;;
2390;SDS011;22957;50.824;4.360;2024-03-02T13:55:45;2.30;;;0.80;;
2390;SDS011;22957;50.824;4.360;2024-03-02T13:58:10;15.23;;;1.37;;
2390;SDS011;22957;50.824;4.360;2024-03-02T14:00:36;2.47;;;0.90;;
2390;SDS011;22957;50.824;4.360;2024-03-02T14:03:03;4.43;;;0.80;;
2390;SDS011;22957;50.824;4.360;2024-03-02T14:05:30;1.70;;;0.77;;
2390;SDS011;22957;50.824;4.360;2024-03-02T14:07:56;5.03;;;0.90;;
2390;SDS011;22957;50.824;4.360;2024-03-02T14:10:22;2.03;;;0.80;;
2390;SDS011;22957;50.824;4.360;2024-03-02T14:12:48;2.43;;;1.20;;
2390;SDS011;22957;50.824;4.360;2024-03-02T14:15:14;2.47;;;0.80;;
2390;SDS011;22957;50.824;4.360;2024-03-02T14:17:40;4.83;;;0.87;;
2390;SDS011;22957;50.824;4.360;2024-03-02T14:20:05;2.50;;;0.70;;
2390;SDS011;22957;50.824;4.360;2024-03-02T14:22:31;3.57;;;0.80;;
2390;SDS011;22957;50.824;4.360;2024-03-02T14:24:58;4.23;;;1.20;;
2390;SDS011;22957;50.824;4.360;2024-03-02T14:27:24;7.80;;;0.70;;
2390;SDS011;22957;50.824;4.360;2024-03-02T14:29:50;3.00;;;0.80;;
2390;SDS011;22957;50.824;4.360;2024-03-02T14:32:16;2.57;;;0.80;;
2390;SDS011;22957;50.824;4.360;2024-03-02T14:34:41;5.83;;;1.27;;
2390;SDS011;22957;50.824;4.360;2024-03-02T14:37:07;2.50;;;0.70;;
2390;SDS011;22957;50.824;4.360;2024-03-02T14:39:33;2.47;;;1.20;;
2390;SDS011;22957;50.824;4.360;2024-03-02T14:42:00;1.63;;;0.80;;
2390;SDS011;22957;50.824;4.360;2024-03-02T14:44:26;3.13;;;0.80;;
2390;SDS011;22957;50.824;4.360;2024-03-02T14:46:52;6.80;;;1.10;;
2390;SDS011;22957;50.824;4.360;2024-03-02T14:49:17;2.50;;;0.67;;
2390;SDS011;22957;50.824;4.360;2024-03-02T14:51:43;4.90;;;0.70;;
2390;SDS011;22957;50.824;4.360;2024-03-02T14:54:09;1.83;;;0.70;;
2390;SDS011;22957;50.824;4.360;2024-03-02T14:56:35;3.43;;;0.90;;
2390;SDS011;22957;50.824;4.360;2024-03-02T14:59:00;3.57;;;0.90;;
2390;SDS011;22957;50.824;4.360;2024-03-02T15:01:26;3.83;;;0.80;;
2390;SDS011;22957;50.824;4.360;2024-03-02T15:03:51;2.70;;;0.93;;